Time;durP1;ratioP1;P1;durP2;ratioP2;P2;SDS_P1;SDS_P2;PMS_P1;PMS_P2;Temp;Humidity;BMP_temperature;BMP_pressure;BME280_temperature;BME280_humidity;BME280_pressure;Samples;Min_cycle;Max_cycle;Signal;HPM_P1;HPM_P2
2023/01/02 00:01:21;;;;;;;3.40;2.10;;;15.60;99.90;;;;;;5052611;28;20611;-70
2023/01/02 00:03:47;;;;;;;3.00;1.80;;;15.70;99.90;;;;;;5051344;28;20208;-70
2023/01/02 00:06:13;;;;;;;2.10;1.37;;;15.70;99.90;;;;;;5052741;28;20167;-70
2023/01/02 00:08:38;;;;;;;6.47;2.40;;;15.80;99.90;;;;;;5052789;28;20168;-70
2023/01/02 00:11:04;;;;;;;3.37;2.33;;;15.70;99.90;;;;;;5052676;28;20407;-70
2023/01/02 00:13:30;;;;;;;3.90;2.30;;;15.60;99.90;;;;;;5052510;28;20190;-70
2023/01/02 00:15:55;;;;;;;2.23;1.77;;;15.60;99.90;;;;;;5052669;28;20203;-70
2023/01/02 00:18:21;;;;;;;2.80;1.80;;;15.60;99.90;;;;;;5052096;28;20170;-70
2023/01/02 00:20:46;;;;;;;2.60;2.00;;;15.60;99.90;;;;;;5051327;28;20620;-70
2023/01/02 00:23:12;;;;;;;3.33;1.80;;;15.80;99.90;;;;;;5052409;28;20618;-70
2023/01/02 00:25:37;;;;;;;4.47;2.07;;;15.70;99.90;;;;;;5052788;28;20506;-70
2023/01/02 00:28:03;;;;;;;4.83;1.43;;;15.80;99.90;;;;;;5051323;28;20259;-70
2023/01/02 00:30:29;;;;;;;4.77;1.87;;;15.70;99.90;;;;;;5055525;28;20175;-70
2023/01/02 00:32:54;;;;;;;3.23;1.90;;;15.60;99.90;;;;;;5055927;28;20265;-70
2023/01/02 00:35:20;;;;;;;2.67;2.17;;;15.60;99.90;;;;;;5056251;28;20240;-70
2023/01/02 00:37:45;;;;;;;1.90;1.70;;;15.70;99.90;;;;;;5056167;28;20273;-70
2023/01/02 00:40:12;;;;;;;3.40;1.77;;;15.70;99.90;;;;;;5056234;28;20173;-70
2023/01/02 00:42:42;;;;;;;3.03;1.77;;;15.70;99.90;;;;;;5056331;28;20203;-70
2023/01/02 00:45:09;;;;;;;1.80;1.60;;;15.70;99.90;;;;;;5055582;28;20396;-70
2023/01/02 00:47:35;;;;;;;4.17;2.43;;;15.70;99.90;;;;;;5055469;28;20448;-69
2023/01/02 00:50:01;;;;;;;3.37;2.20;;;15.80;99.90;;;;;;5056303;28;20430;-69
2023/01/02 00:52:26;;;;;;;4.40;2.90;;;15.60;99.90;;;;;;5055750;28;20669;-73
2023/01/02 00:54:52;;;;;;;5.20;3.50;;;15.60;99.90;;;;;;5054095;28;20169;-70
2023/01/02 00:57:17;;;;;;;6.30;4.10;;;15.60;99.90;;;;;;5056525;28;20184;-70
2023/01/02 00:59:43;;;;;;;6.17;4.20;;;15.50;99.90;;;;;;5055688;28;20323;-70
2023/01/02 01:02:09;;;;;;;4.07;3.00;;;15.40;99.90;;;;;;5055312;28;20236;-71
2023/01/02 01:04:35;;;;;;;5.03;2.50;;;15.40;99.90;;;;;;5053670;28;20176;-70
2023/01/02 01:07:01;;;;;;;6.63;2.73;;;15.40;99.90;;;;;;5055911;28;20621;-70
2023/01/02 01:09:26;;;;;;;3.70;2.50;;;15.30;99.90;;;;;;5055708;28;20410;-70
2023/01/02 01:11:52;;;;;;;5.30;2.63;;;15.30;99.90;;;;;;5055644;28;20183;-70
2023/01/02 01:14:18;;;;;;;6.30;2.60;;;15.10;99.90;;;;;;5056141;28;20170;-69
2023/01/02 01:16:43;;;;;;;5.77;2.70;;;15.10;99.90;;;;;;5055570;28;20166;-69
2023/01/02 01:19:09;;;;;;;3.10;2.30;;;15.00;99.90;;;;;;5055346;28;20178;-69
2023/01/02 01:21:34;;;;;;;6.63;2.90;;;15.00;99.90;;;;;;5055646;28;20191;-68
2023/01/02 01:24:00;;;;;;;5.03;3.20;;;14.90;99.90;;;;;;5055502;28;20285;-69
2023/01/02 01:26:26;;;;;;;3.50;3.07;;;14.80;99.90;;;;;;5054041;28;20170;-69
2023/01/02 01:28:52;;;;;;;3.73;2.53;;;14.70;99.90;;;;;;5055520;28;20170;-68
2023/01/02 01:31:18;;;;;;;5.00;2.97;;;14.70;99.90;;;;;;5053881;28;20308;-69
2023/01/02 01:33:44;;;;;;;5.70;3.00;;;14.70;99.90;;;;;;5055180;28;20477;-69
2023/01/02 01:36:18;;;;;;;3.67;2.83;;;14.50;99.90;;;;;;5054630;28;20260;-69
2023/01/02 01:38:44;;;;;;;3.10;2.37;;;14.40;99.90;;;;;;5053784;28;20873;-69
2023/01/02 01:41:12;;;;;;;4.10;2.80;;;14.40;99.90;;;;;;5054898;28;20756;-70
2023/01/02 01:43:49;;;;;;;9.70;8.03;;;14.50;99.90;;;;;;5054960;28;20540;-69
2023/01/02 01:46:39;;;;;;;5.07;3.80;;;14.40;99.90;;;;;;5054958;28;20379;-69
2023/01/02 01:49:18;;;;;;;9.87;6.03;;;14.20;99.90;;;;;;5054433;28;20473;-70
2023/01/02 01:51:50;;;;;;;5.53;4.87;;;14.00;99.90;;;;;;5054743;28;20419;-69
2023/01/02 01:54:19;;;;;;;4.87;3.63;;;14.00;99.90;;;;;;5055097;28;20380;-69
2023/01/02 01:56:51;;;;;;;7.47;4.77;;;14.10;99.90;;;;;;5054731;28;20410;-69
2023/01/02 01:59:17;;;;;;;4.17;3.07;;;14.00;99.90;;;;;;5054984;28;20379;-69
2023/01/02 02:01:43;;;;;;;4.60;3.03;;;14.00;99.90;;;;;;5054607;28;20520;-69
2023/01/02 02:04:10;;;;;;;5.73;2.63;;;14.00;99.90;;;;;;5053829;28;20457;-69
2023/01/02 02:06:36;;;;;;;3.47;2.23;;;13.90;99.90;;;;;;5055026;28;20420;-69
2023/01/02 02:09:14;;;;;;;8.80;2.40;;;14.00;99.90;;;;;;5054511;28;20411;-69
2023/01/02 02:11:41;;;;;;;6.90;2.77;;;14.00;99.90;;;;;;5054389;28;20451;-69
2023/01/02 02:14:06;;;;;;;3.63;2.33;;;14.00;99.90;;;;;;5054840;28;20466;-69
2023/01/02 02:16:51;;;;;;;4.10;2.00;;;14.10;99.90;;;;;;5054346;28;20407;-69
2023/01/02 02:19:17;;;;;;;2.20;2.00;;;14.10;99.90;;;;;;5052091;28;20262;-69
2023/01/02 02:21:55;;;;;;;3.60;2.57;;;14.10;99.90;;;;;;5054344;28;20462;-69
2023/01/02 02:24:42;;;;;;;3.83;2.20;;;14.20;99.90;;;;;;5054208;28;20307;-69
2023/01/02 02:27:25;;;;;;;3.37;2.60;;;14.20;99.90;;;;;;5054303;28;20381;-69
2023/01/02 02:30:06;;;;;;;4.03;2.30;;;14.20;99.90;;;;;;5054714;28;20385;-69
2023/01/02 02:33:01;;;;;;;3.80;2.00;;;14.10;99.90;;;;;;5053960;28;20482;-69
2023/01/02 02:35:35;;;;;;;3.53;1.90;;;14.00;99.90;;;;;;5053518;28;20519;-69
2023/01/02 02:38:07;;;;;;;3.20;1.80;;;13.80;99.90;;;;;;5053957;28;20388;-68
2023/01/02 02:41:00;;;;;;;3.23;1.93;;;13.80;99.90;;;;;;5054097;28;20405;-68
2023/01/02 02:43:40;;;;;;;3.70;2.30;;;13.70;99.90;;;;;;5053235;28;20458;-68
2023/01/02 02:46:32;;;;;;;3.30;2.23;;;13.60;99.90;;;;;;5053977;28;20382;-68
2023/01/02 02:49:02;;;;;;;4.43;2.00;;;13.50;99.90;;;;;;5052310;28;20417;-69
2023/01/02 02:51:47;;;;;;;2.90;2.03;;;13.60;99.90;;;;;;5051770;28;20458;-69
2023/01/02 02:54:29;;;;;;;2.50;2.10;;;13.80;99.90;;;;;;5053903;28;20879;-69
2023/01/02 02:56:56;;;;;;;3.37;2.00;;;13.70;99.90;;;;;;5053597;28;20743;-69
2023/01/02 02:59:22;;;;;;;3.00;1.80;;;13.70;99.90;;;;;;5053191;28;20918;-69
2023/01/02 03:01:48;;;;;;;2.60;1.63;;;13.60;99.90;;;;;;5052843;28;20475;-69
2023/01/02 03:04:19;;;;;;;2.93;1.83;;;13.70;99.90;;;;;;5053420;28;20474;-69
2023/01/02 03:07:02;;;;;;;3.00;1.70;;;13.60;99.90;;;;;;5052005;28;20176;-69
2023/01/02 03:09:42;;;;;;;4.13;2.43;;;13.50;99.90;;;;;;5053575;28;20751;-69
2023/01/02 03:12:24;;;;;;;2.87;2.20;;;13.60;99.90;;;;;;5051921;28;20469;-69
2023/01/02 03:15:10;;;;;;;1.57;1.27;;;13.60;99.90;;;;;;5053368;28;20772;-69
2023/01/02 03:18:05;;;;;;;2.50;1.73;;;13.60;99.90;;;;;;5053560;28;20434;-69
2023/01/02 03:20:43;;;;;;;2.90;1.47;;;13.70;99.90;;;;;;5053206;28;20418;-70
2023/01/02 03:23:14;;;;;;;3.60;1.60;;;13.80;99.90;;;;;;5053281;28;20962;-69
2023/01/02 03:25:42;;;;;;;2.53;1.80;;;13.90;99.90;;;;;;5053357;28;20882;-69
2023/01/02 03:28:10;;;;;;;2.20;1.73;;;13.90;99.90;;;;;;5053061;28;20409;-70
2023/01/02 03:30:38;;;;;;;4.17;2.10;;;14.00;99.90;;;;;;5053285;28;20403;-70
2023/01/02 03:33:12;;;;;;;4.17;1.70;;;14.00;99.90;;;;;;5053294;28;20431;-69
2023/01/02 03:35:49;;;;;;;2.63;1.83;;;14.10;99.90;;;;;;5053231;28;20496;-74
2023/01/02 03:38:38;;;;;;;2.63;1.50;;;14.10;99.90;;;;;;5052972;28;20397;-69
2023/01/02 03:41:35;;;;;;;3.00;1.80;;;14.10;99.90;;;;;;5052597;28;20423;-69
2023/01/02 03:44:04;;;;;;;2.70;2.00;;;14.30;99.90;;;;;;5040514;28;20468;-69
2023/01/02 03:46:36;;;;;;;3.37;1.60;;;14.20;99.90;;;;;;5051368;28;20409;-69
2023/01/02 03:49:17;;;;;;;5.80;1.77;;;14.30;99.90;;;;;;5052393;28;20389;-69
2023/01/02 03:51:42;;;;;;;3.00;2.13;;;14.40;99.90;;;;;;5052564;28;20455;-69
2023/01/02 03:54:09;;;;;;;6.53;1.40;;;14.60;99.90;;;;;;5053014;28;20446;-69
2023/01/02 03:56:35;;;;;;;2.03;1.37;;;14.50;99.90;;;;;;5052528;28;20596;-69
2023/01/02 03:59:37;;;;;;;2.30;1.33;;;14.40;99.90;;;;;;5052850;28;20419;-69
2023/01/02 04:02:23;;;;;;;3.17;1.60;;;14.30;99.90;;;;;;5072988;23;20222;-73
2023/01/02 04:04:52;;;;;;;2.37;1.53;;;14.40;99.90;;;;;;5055387;28;20743;-73
2023/01/02 04:07:35;;;;;;;3.17;1.57;;;14.40;99.90;;;;;;5055747;28;20455;-73
2023/01/02 04:10:02;;;;;;;3.60;1.60;;;14.40;99.90;;;;;;5055513;28;20420;-73
2023/01/02 04:12:32;;;;;;;1.80;1.70;;;14.40;99.90;;;;;;5056821;28;20432;-73
2023/01/02 04:15:08;;;;;;;2.50;1.70;;;14.30;99.90;;;;;;5057278;28;20455;-74
2023/01/02 04:17:42;;;;;;;1.70;1.40;;;14.30;99.90;;;;;;5057246;28;20392;-74
2023/01/02 04:20:11;;;;;;;3.47;1.67;;;14.20;99.90;;;;;;5054514;28;20418;-73
2023/01/02 04:22:49;;;;;;;5.80;1.87;;;14.20;99.90;;;;;;5056136;28;20479;-73
2023/01/02 04:25:17;;;;;;;3.70;1.80;;;14.20;99.90;;;;;;5055325;28;20552;-73
2023/01/02 04:27:52;;;;;;;7.37;1.60;;;14.20;99.90;;;;;;5055285;28;20426;-73
2023/01/02 04:30:18;;;;;;;2.77;1.70;;;13.90;99.90;;;;;;5055269;28;20402;-72
2023/01/02 04:32:46;;;;;;;3.07;1.33;;;14.00;99.90;;;;;;5057037;28;20431;-75
2023/01/02 04:35:19;;;;;;;2.83;1.50;;;14.10;99.90;;;;;;5056690;28;20177;-73
2023/01/02 04:37:45;;;;;;;2.60;1.60;;;14.10;99.90;;;;;;5055249;28;20480;-73
2023/01/02 04:40:42;;;;;;;3.00;1.60;;;14.10;99.90;;;;;;5056330;28;20407;-73
2023/01/02 04:43:17;;;;;;;3.77;1.80;;;14.10;99.90;;;;;;5052454;28;20480;-74
2023/01/02 04:45:43;;;;;;;3.23;1.70;;;14.00;99.90;;;;;;5055331;28;20925;-74
2023/01/02 04:48:08;;;;;;;3.13;2.10;;;14.00;99.90;;;;;;5056284;28;20434;-74
2023/01/02 04:50:34;;;;;;;2.27;1.30;;;13.90;99.90;;;;;;5055275;28;20200;-74
2023/01/02 04:53:00;;;;;;;2.93;2.10;;;13.90;99.90;;;;;;5056180;28;20190;-74
2023/01/02 04:55:25;;;;;;;2.60;1.60;;;13.90;99.90;;;;;;5056209;28;20642;-74
2023/01/02 04:57:51;;;;;;;3.10;1.63;;;13.90;99.90;;;;;;5053671;28;20633;-74
2023/01/02 05:00:16;;;;;;;3.17;2.03;;;13.80;99.90;;;;;;5057383;28;20197;-74
2023/01/02 05:02:42;;;;;;;3.20;1.60;;;13.70;99.90;;;;;;5055698;28;20210;-74
2023/01/02 05:05:08;;;;;;;2.80;1.67;;;13.60;99.90;;;;;;5040838;28;20170;-76
2023/01/02 05:07:35;;;;;;;2.77;1.80;;;13.60;99.90;;;;;;5053998;28;20167;-74
2023/01/02 05:10:01;;;;;;;2.20;1.50;;;13.70;99.90;;;;;;5056024;28;20400;-74
2023/01/02 05:12:26;;;;;;;5.10;2.20;;;13.70;99.90;;;;;;5055918;28;20952;-72
2023/01/02 05:14:52;;;;;;;2.20;1.57;;;13.80;99.90;;;;;;5055332;28;20240;-73
2023/01/02 05:17:17;;;;;;;3.47;2.13;;;13.90;99.90;;;;;;5056112;28;20184;-74
2023/01/02 05:19:43;;;;;;;3.13;1.80;;;14.00;99.90;;;;;;5055590;28;20177;-75
2023/01/02 05:24:55;;;;;;;3.60;2.00;;;14.00;99.90;;;;;;5056217;28;20166;-75
2023/01/02 05:27:21;;;;;;;4.30;2.20;;;13.90;99.90;;;;;;5055449;28;20408;-73
2023/01/02 05:29:47;;;;;;;4.00;2.20;;;13.80;99.90;;;;;;5055384;28;20170;-73
2023/01/02 05:32:12;;;;;;;3.83;1.60;;;13.80;99.90;;;;;;5055418;28;20251;-73
2023/01/02 05:34:38;;;;;;;5.33;1.93;;;13.90;99.90;;;;;;5055359;28;20637;-73
2023/01/02 05:37:03;;;;;;;3.40;2.63;;;13.80;99.90;;;;;;5055081;28;20617;-75
2023/01/02 05:39:29;;;;;;;11.53;7.00;;;13.90;99.90;;;;;;5055355;28;20246;-74
2023/01/02 05:41:54;;;;;;;4.43;2.97;;;13.90;99.90;;;;;;5054153;28;20189;-75
2023/01/02 05:44:20;;;;;;;3.67;2.50;;;13.80;99.90;;;;;;5053891;28;20289;-74
2023/01/02 05:46:45;;;;;;;3.70;1.63;;;13.70;99.90;;;;;;5056184;28;20170;-74
2023/01/02 05:49:11;;;;;;;2.17;1.83;;;13.70;99.90;;;;;;5055433;28;20171;-74
2023/01/02 05:51:37;;;;;;;5.73;2.00;;;13.90;99.90;;;;;;5055010;28;20606;-74
2023/01/02 05:54:03;;;;;;;3.90;2.00;;;13.80;99.90;;;;;;5053958;28;20189;-74
2023/01/02 05:56:29;;;;;;;3.93;1.77;;;13.80;99.90;;;;;;5055049;28;20179;-74
2023/01/02 05:58:55;;;;;;;6.20;1.80;;;13.80;99.90;;;;;;5054024;28;20789;-74
2023/01/02 06:01:23;;;;;;;2.43;1.77;;;13.70;99.90;;;;;;5055489;28;20417;-74
2023/01/02 06:03:51;;;;;;;3.53;1.90;;;13.80;99.90;;;;;;5055157;28;20235;-74
2023/01/02 06:06:23;;;;;;;4.10;2.13;;;13.90;99.90;;;;;;5053681;28;20421;-74
2023/01/02 06:08:48;;;;;;;6.10;3.00;;;14.00;99.90;;;;;;5053871;28;20409;-74
2023/01/02 06:11:14;;;;;;;6.00;3.77;;;14.00;99.90;;;;;;5055015;28;20952;-74
2023/01/02 06:13:40;;;;;;;5.80;2.90;;;14.10;99.90;;;;;;5054771;28;20271;-74
2023/01/02 06:16:07;;;;;;;3.50;2.20;;;14.10;99.90;;;;;;5054647;28;20634;-74
2023/01/02 06:18:34;;;;;;;3.40;2.23;;;14.20;99.90;;;;;;5054620;28;20177;-74
2023/01/02 06:21:14;;;;;;;6.13;2.70;;;14.20;99.90;;;;;;5054440;28;20478;-74
2023/01/02 06:23:41;;;;;;;3.43;1.93;;;14.20;99.90;;;;;;5054477;28;20550;-74
2023/01/02 06:26:15;;;;;;;4.43;2.50;;;14.10;99.90;;;;;;5054377;28;20775;-74
2023/01/02 06:28:42;;;;;;;6.53;2.77;;;14.10;99.90;;;;;;5054144;28;20762;-74
2023/01/02 06:31:10;;;;;;;7.63;4.60;;;14.10;99.90;;;;;;5053146;28;20412;-74
2023/01/02 06:33:37;;;;;;;15.03;6.90;;;14.20;99.90;;;;;;5052946;28;20427;-74
2023/01/02 06:36:11;;;;;;;14.40;8.57;;;14.30;99.90;;;;;;5052834;28;20433;-74
2023/01/02 06:38:37;;;;;;;20.30;8.47;;;14.40;99.90;;;;;;5054615;28;20891;-74
2023/01/02 06:41:04;;;;;;;5.67;3.90;;;14.20;99.90;;;;;;5055574;28;20422;-75
2023/01/02 06:43:31;;;;;;;5.00;3.40;;;14.10;99.90;;;;;;5055131;28;20491;-72
2023/01/02 06:46:03;;;;;;;6.53;4.00;;;14.10;99.90;;;;;;5055205;28;20409;-74
2023/01/02 06:48:29;;;;;;;8.10;3.23;;;14.20;99.90;;;;;;5053958;28;20491;-74
2023/01/02 06:50:55;;;;;;;4.53;2.27;;;14.20;99.90;;;;;;5055024;28;20790;-74
2023/01/02 06:53:20;;;;;;;3.03;1.87;;;14.10;99.90;;;;;;5054221;28;20444;-74
2023/01/02 06:55:53;;;;;;;2.70;1.83;;;14.10;99.90;;;;;;5054579;28;20183;-71
2023/01/02 06:58:19;;;;;;;6.07;2.27;;;14.20;99.90;;;;;;5054060;28;20210;-72
2023/01/02 07:00:45;;;;;;;3.10;1.73;;;14.20;99.90;;;;;;5035544;28;20421;-73
2023/01/02 07:03:11;;;;;;;3.43;1.80;;;14.30;99.90;;;;;;5039899;28;20470;-74
2023/01/02 07:05:37;;;;;;;3.50;2.17;;;14.40;99.90;;;;;;5053666;28;20481;-72
2023/01/02 07:08:02;;;;;;;3.10;2.10;;;14.60;99.90;;;;;;5053699;28;20627;-73
2023/01/02 07:10:28;;;;;;;5.40;2.13;;;14.60;99.90;;;;;;5053978;28;20187;-74
2023/01/02 07:12:53;;;;;;;4.30;2.40;;;14.50;99.90;;;;;;5053590;28;20195;-74
2023/01/02 07:15:19;;;;;;;3.60;2.17;;;14.60;99.90;;;;;;5053506;28;20179;-74
2023/01/02 07:17:45;;;;;;;5.10;2.13;;;14.50;99.90;;;;;;5051992;28;20664;-74
2023/01/02 07:20:11;;;;;;;2.03;1.47;;;14.40;99.90;;;;;;5053221;28;20173;-74
2023/01/02 07:22:36;;;;;;;4.30;2.30;;;14.50;99.90;;;;;;5053430;28;20211;-74
2023/01/02 07:25:02;;;;;;;4.67;2.50;;;14.60;99.90;;;;;;5051983;28;20992;-73
2023/01/02 07:27:31;;;;;;;3.70;1.87;;;14.50;99.90;;;;;;5053381;28;20207;-74
2023/01/02 07:29:57;;;;;;;2.83;2.00;;;14.40;99.90;;;;;;5053461;28;20462;-74
2023/01/02 07:32:23;;;;;;;5.70;2.57;;;14.50;99.90;;;;;;5051724;28;20427;-74
2023/01/02 07:34:48;;;;;;;4.03;2.27;;;14.50;99.90;;;;;;5052701;28;20168;-74
2023/01/02 07:37:14;;;;;;;3.13;2.17;;;14.60;99.90;;;;;;5053679;28;20813;-74
2023/01/02 07:39:39;;;;;;;5.83;2.50;;;14.60;99.90;;;;;;5052919;28;20177;-74
2023/01/02 07:42:05;;;;;;;5.13;2.03;;;14.70;99.90;;;;;;5052922;28;20273;-74
2023/01/02 07:44:31;;;;;;;7.10;2.50;;;14.60;99.90;;;;;;5052873;28;20252;-74
2023/01/02 07:46:56;;;;;;;4.17;2.80;;;14.50;99.90;;;;;;5052950;28;20179;-74
2023/01/02 07:49:22;;;;;;;3.30;2.10;;;14.50;99.90;;;;;;5052521;28;20625;-74
2023/01/02 07:51:47;;;;;;;3.30;2.20;;;14.40;99.90;;;;;;5052988;28;20251;-74
2023/01/02 07:54:13;;;;;;;4.30;2.70;;;14.30;99.90;;;;;;5053100;28;20173;-74
2023/01/02 07:56:39;;;;;;;3.23;2.40;;;14.30;99.90;;;;;;5052982;28;20178;-74
2023/01/02 07:59:04;;;;;;;4.13;2.07;;;14.20;99.90;;;;;;5052952;28;20231;-74
2023/01/02 08:01:30;;;;;;;3.47;2.33;;;14.20;99.90;;;;;;5052809;28;20182;-73
2023/01/02 08:03:55;;;;;;;3.43;2.40;;;14.20;99.90;;;;;;5051320;28;20271;-73
2023/01/02 08:06:21;;;;;;;5.27;2.40;;;14.10;99.90;;;;;;5052713;28;20178;-72
2023/01/02 08:08:46;;;;;;;3.00;2.20;;;14.20;99.90;;;;;;5052029;28;20204;-72
2023/01/02 08:11:18;;;;;;;3.43;2.87;;;14.20;99.90;;;;;;5052652;28;20173;-72
2023/01/02 08:13:44;;;;;;;3.97;2.20;;;14.20;99.90;;;;;;5052740;28;20598;-73
2023/01/02 08:16:17;;;;;;;6.10;2.20;;;14.20;99.90;;;;;;5052688;28;20400;-72
2023/01/02 08:18:43;;;;;;;3.50;2.20;;;14.20;99.90;;;;;;5053329;28;20240;-72
2023/01/02 08:21:10;;;;;;;4.33;2.87;;;14.20;99.90;;;;;;5052652;28;20432;-72
2023/01/02 08:23:36;;;;;;;4.87;2.10;;;14.10;99.90;;;;;;5052042;28;20558;-72
2023/01/02 08:26:04;;;;;;;5.53;2.60;;;14.10;99.90;;;;;;5052534;28;20842;-72
2023/01/02 08:28:31;;;;;;;3.53;2.60;;;14.20;99.90;;;;;;5052496;28;20461;-72
2023/01/02 08:30:56;;;;;;;3.33;2.40;;;14.30;99.90;;;;;;5052197;28;20402;-72
2023/01/02 08:33:22;;;;;;;3.50;2.30;;;14.40;99.90;;;;;;5052381;28;20472;-72
2023/01/02 08:35:47;;;;;;;6.87;2.97;;;14.40;99.90;;;;;;5051191;28;20234;-72
2023/01/02 08:38:13;;;;;;;3.23;1.90;;;14.40;99.90;;;;;;5052555;28;20170;-72
2023/01/02 08:40:39;;;;;;;4.57;2.67;;;14.40;99.90;;;;;;5052673;28;20177;-72
2023/01/02 08:43:07;;;;;;;5.43;2.80;;;14.40;99.90;;;;;;5052685;28;20287;-72
2023/01/02 08:45:33;;;;;;;4.37;2.00;;;14.60;99.90;;;;;;5052635;28;20199;-72
2023/01/02 08:47:58;;;;;;;4.90;2.13;;;14.60;99.90;;;;;;5052682;28;20489;-73
2023/01/02 08:50:24;;;;;;;2.60;2.40;;;14.70;99.90;;;;;;5054655;28;20253;-72
2023/01/02 08:52:50;;;;;;;3.67;1.83;;;14.70;99.90;;;;;;5049236;28;20310;-72
2023/01/02 08:55:16;;;;;;;4.13;2.57;;;14.80;99.90;;;;;;5056590;28;20498;-73
2023/01/02 08:57:42;;;;;;;4.23;2.10;;;14.90;99.90;;;;;;5056697;28;20174;-73
2023/01/02 09:00:08;;;;;;;5.17;2.33;;;14.90;99.90;;;;;;5056472;28;20243;-73
2023/01/02 09:02:33;;;;;;;4.87;1.80;;;14.80;99.90;;;;;;5057070;28;20706;-72
2023/01/02 09:04:59;;;;;;;2.93;2.40;;;15.00;99.90;;;;;;5056776;28;20416;-73
2023/01/02 09:07:25;;;;;;;3.73;2.27;;;15.20;99.90;;;;;;5055397;28;20176;-72
2023/01/02 09:09:50;;;;;;;5.23;2.93;;;15.30;99.90;;;;;;5056812;28;20257;-72
2023/01/02 09:12:16;;;;;;;3.30;2.47;;;15.20;99.90;;;;;;5055651;28;20196;-72
2023/01/02 09:14:41;;;;;;;4.13;2.77;;;15.20;99.90;;;;;;5055598;28;20180;-72
2023/01/02 09:17:07;;;;;;;2.97;2.20;;;15.20;99.90;;;;;;5055557;28;20170;-72
2023/01/02 09:19:33;;;;;;;5.27;2.73;;;15.20;99.90;;;;;;5054163;28;20173;-72
2023/01/02 09:22:00;;;;;;;4.00;2.50;;;15.20;99.90;;;;;;5055040;28;20189;-72
2023/01/02 09:24:26;;;;;;;4.73;1.80;;;15.00;99.90;;;;;;5053926;28;20218;-72
2023/01/02 09:26:52;;;;;;;3.53;2.30;;;14.90;99.90;;;;;;5054003;28;20405;-72
2023/01/02 09:29:18;;;;;;;5.03;2.50;;;15.00;99.90;;;;;;5055773;28;20402;-70
2023/01/02 09:31:44;;;;;;;5.97;2.30;;;15.00;99.90;;;;;;5055222;28;20400;-72
2023/01/02 09:34:09;;;;;;;7.60;3.00;;;15.00;99.90;;;;;;5054817;28;20775;-72
2023/01/02 09:36:35;;;;;;;4.30;2.80;;;15.00;99.90;;;;;;5055120;28;20623;-72
2023/01/02 09:39:02;;;;;;;7.90;2.70;;;15.20;99.90;;;;;;5054685;28;20180;-72
2023/01/02 09:41:34;;;;;;;3.27;2.50;;;15.20;99.90;;;;;;5055114;28;20404;-72
2023/01/02 09:44:20;;;;;;;5.37;2.60;;;15.30;99.90;;;;;;5055250;28;20458;-72
2023/01/02 09:46:54;;;;;;;3.70;2.27;;;15.40;99.90;;;;;;5055762;28;20778;-72
2023/01/02 09:49:27;;;;;;;5.20;2.10;;;15.70;99.90;;;;;;5055169;28;20445;-72
2023/01/02 09:51:53;;;;;;;3.30;2.20;;;15.80;99.90;;;;;;5055104;28;20507;-72
2023/01/02 09:54:25;;;;;;;7.03;2.87;;;15.90;99.50;;;;;;5054472;28;20436;-72
2023/01/02 09:57:25;;;;;;;2.50;2.30;;;15.90;98.50;;;;;;5054836;28;20167;-72
2023/01/02 10:00:14;;;;;;;3.97;2.60;;;15.80;98.80;;;;;;5055524;28;20404;-72
2023/01/02 10:03:16;;;;;;;3.80;2.30;;;15.90;98.40;;;;;;5055237;28;21076;-72
2023/01/02 10:05:57;;;;;;;6.40;1.97;;;16.00;98.00;;;;;;5055190;28;20740;-72
2023/01/02 10:08:45;;;;;;;5.10;2.37;;;16.30;98.10;;;;;;5053235;28;20409;-72
2023/01/02 10:11:16;;;;;;;4.90;2.10;;;16.50;98.10;;;;;;5055004;28;20388;-72
2023/01/02 10:14:03;;;;;;;4.07;2.27;;;16.70;97.90;;;;;;5054577;28;20512;-73
2023/01/02 10:16:37;;;;;;;5.27;2.30;;;16.60;96.20;;;;;;5054881;28;20476;-73
2023/01/02 10:19:11;;;;;;;5.00;2.67;;;16.50;96.30;;;;;;5054783;28;20409;-73
2023/01/02 10:21:38;;;;;;;6.40;2.27;;;16.70;96.80;;;;;;5054644;28;20403;-73
2023/01/02 10:24:14;;;;;;;2.40;2.10;;;16.60;96.00;;;;;;5054233;28;20461;-72
2023/01/02 10:26:48;;;;;;;4.70;2.90;;;16.80;96.10;;;;;;5055076;28;20405;-73
2023/01/02 10:29:30;;;;;;;4.83;2.70;;;17.00;96.40;;;;;;5054631;28;20381;-73
2023/01/02 10:32:05;;;;;;;7.03;2.30;;;17.00;96.20;;;;;;5054304;28;20455;-73
2023/01/02 10:34:56;;;;;;;6.67;3.00;;;17.20;95.90;;;;;;5054591;28;20880;-73
2023/01/02 10:37:22;;;;;;;3.77;2.60;;;17.50;96.30;;;;;;5053946;28;20939;-73
2023/01/02 10:39:49;;;;;;;3.33;1.83;;;17.50;96.30;;;;;;5054285;28;20405;-73
2023/01/02 10:42:15;;;;;;;4.97;2.67;;;17.20;94.50;;;;;;5052799;28;20191;-72
2023/01/02 10:44:44;;;;;;;4.50;2.40;;;17.20;94.80;;;;;;5054565;28;20402;-73
2023/01/02 10:47:29;;;;;;;8.60;2.20;;;17.30;94.40;;;;;;5054143;28;20466;-73
2023/01/02 10:49:56;;;;;;;3.37;2.23;;;17.30;94.60;;;;;;5053941;28;20439;-73
2023/01/02 10:52:30;;;;;;;5.40;2.37;;;17.30;94.60;;;;;;5052223;28;20421;-72
2023/01/02 10:54:57;;;;;;;7.10;2.10;;;17.30;94.40;;;;;;5037748;28;20401;-73
2023/01/02 10:57:42;;;;;;;4.73;2.10;;;17.50;93.30;;;;;;5033629;28;20406;-73
2023/01/02 11:00:16;;;;;;;8.80;2.47;;;17.70;93.80;;;;;;5033331;28;20387;-74
2023/01/02 11:02:42;;;;;;;4.30;2.63;;;17.50;93.10;;;;;;5033362;28;20884;-72
2023/01/02 11:05:18;;;;;;;6.63;2.67;;;17.80;92.70;;;;;;5033520;28;20413;-72
2023/01/02 11:07:47;;;;;;;5.13;2.60;;;18.70;91.70;;;;;;5042961;28;20217;-72
2023/01/02 11:10:33;;;;;;;4.03;2.30;;;19.50;90.40;;;;;;5053465;28;20425;-72
2023/01/02 11:13:03;;;;;;;4.33;2.50;;;20.40;89.50;;;;;;5053308;28;20425;-72
2023/01/02 11:15:33;;;;;;;6.07;2.77;;;20.40;85.90;;;;;;5053642;28;20413;-72
2023/01/02 11:18:00;;;;;;;7.60;2.07;;;20.70;85.00;;;;;;5054009;28;20839;-72
2023/01/02 11:20:32;;;;;;;4.83;2.47;;;21.10;82.90;;;;;;5053752;28;20787;-72
2023/01/02 11:23:01;;;;;;;4.07;2.30;;;21.60;81.70;;;;;;5052858;28;20456;-71
2023/01/02 11:25:40;;;;;;;4.90;2.23;;;22.00;79.30;;;;;;5053328;28;20409;-72
2023/01/02 11:28:15;;;;;;;8.50;3.07;;;22.70;76.50;;;;;;5053313;28;20396;-72
2023/01/02 11:30:53;;;;;;;7.67;2.70;;;23.20;77.20;;;;;;5053559;28;20401;-71
2023/01/02 11:33:33;;;;;;;4.60;2.50;;;22.80;72.80;;;;;;5051898;28;20444;-70
2023/01/02 11:36:10;;;;;;;3.70;2.20;;;21.70;75.80;;;;;;5051956;28;20413;-70
2023/01/02 11:38:45;;;;;;;3.27;1.93;;;21.30;76.20;;;;;;5051889;28;20405;-72
2023/01/02 11:43:47;;;;;;;8.63;2.93;;;21.10;77.20;;;;;;5053182;28;20467;-70
2023/01/02 11:44:21;;;;;;;3.80;2.40;;;20.80;80.60;;;;;;5053015;28;20831;-71
2023/01/02 11:46:47;;;;;;;7.33;2.83;;;20.50;78.80;;;;;;5052992;28;20405;-71
2023/01/02 11:49:16;;;;;;;5.77;2.17;;;21.30;77.70;;;;;;5052527;28;20420;-70
2023/01/02 11:51:42;;;;;;;8.07;2.50;;;22.60;77.30;;;;;;5052805;28;20916;-71
2023/01/02 11:54:21;;;;;;;7.40;2.60;;;22.20;73.40;;;;;;5053508;28;20489;-68
2023/01/02 11:56:48;;;;;;;4.30;2.10;;;21.50;74.40;;;;;;5052776;28;20506;-70
2023/01/02 11:59:20;;;;;;;13.37;3.60;;;20.80;75.00;;;;;;5052787;28;20433;-70
2023/01/02 12:02:12;;;;;;;5.53;2.37;;;20.00;78.00;;;;;;5052508;28;20797;-70
2023/01/02 12:04:37;;;;;;;6.90;2.77;;;19.50;78.90;;;;;;5051310;28;20469;-71
2023/01/02 12:07:30;;;;;;;8.27;2.60;;;19.20;79.40;;;;;;5052211;28;20401;-70
2023/01/02 12:10:15;;;;;;;5.70;3.50;;;18.90;80.50;;;;;;5053043;28;20163;-70
2023/01/02 12:13:00;;;;;;;7.73;2.87;;;19.00;81.50;;;;;;5052600;28;20444;-70
2023/01/02 12:15:45;;;;;;;10.20;3.20;;;18.70;81.10;;;;;;5052049;28;20926;-70
2023/01/02 12:18:29;;;;;;;5.03;3.03;;;18.90;83.30;;;;;;5052954;28;20416;-69
2023/01/02 12:21:20;;;;;;;6.50;2.20;;;18.70;81.50;;;;;;5052700;28;20503;-70
2023/01/02 12:24:19;;;;;;;8.30;3.50;;;18.90;83.60;;;;;;5052036;28;20460;-71
2023/01/02 12:27:03;;;;;;;5.50;2.43;;;18.90;83.10;;;;;;5056437;28;20791;-71
2023/01/02 12:29:56;;;;;;;6.13;2.53;;;19.00;82.70;;;;;;5055139;28;20413;-70
2023/01/02 12:32:40;;;;;;;5.80;2.43;;;18.80;84.40;;;;;;5056646;28;20425;-72
2023/01/02 12:35:48;;;;;;;7.77;2.33;;;18.50;85.00;;;;;;5056657;28;20397;-71
2023/01/02 12:38:24;;;;;;;5.57;2.47;;;18.60;83.40;;;;;;5055857;28;20390;-70
2023/01/02 12:41:11;;;;;;;7.60;2.90;;;18.80;83.40;;;;;;5056157;28;20409;-70
2023/01/02 12:43:57;;;;;;;3.80;2.47;;;18.90;84.00;;;;;;5054872;28;20872;-70
2023/01/02 12:46:47;;;;;;;7.57;2.43;;;19.00;83.70;;;;;;5055768;28;20397;-72
2023/01/02 12:49:37;;;;;;;7.03;2.40;;;19.00;87.30;;;;;;5056383;28;20386;-72
2023/01/02 12:52:27;;;;;;;5.23;2.70;;;19.20;85.30;;;;;;5055765;28;20459;-71
2023/01/02 12:55:20;;;;;;;6.43;3.17;;;19.30;84.00;;;;;;5056333;28;20396;-72
2023/01/02 12:58:06;;;;;;;7.00;2.40;;;19.30;83.80;;;;;;5055771;28;20405;-72
2023/01/02 13:00:55;;;;;;;5.63;2.40;;;19.40;83.90;;;;;;5054606;28;20428;-71
2023/01/02 13:03:39;;;;;;;8.17;3.07;;;19.80;84.20;;;;;;5055771;28;20467;-70
2023/01/02 13:06:23;;;;;;;4.60;2.70;;;19.80;85.30;;;;;;5056034;28;20401;-72
2023/01/02 13:08:56;;;;;;;6.07;2.20;;;19.80;86.30;;;;;;5053849;28;20452;-72
2023/01/02 13:11:37;;;;;;;4.20;2.60;;;20.00;83.70;;;;;;5055981;28;20948;-72